createdAt,value
2018-08-18T00:00:16.396Z,21.02
2018-08-18T00:01:16.440Z,20.99
2018-08-18T00:02:16.709Z,20.94
2018-08-18T00:03:16.972Z,20.93
2018-08-18T00:04:16.247Z,20.93
2018-08-18T00:05:16.530Z,20.92
2018-08-18T00:06:16.856Z,20.90
2018-08-18T00:07:17.125Z,20.86
2018-08-18T00:08:16.393Z,20.86
2018-08-18T00:09:16.658Z,20.82
2018-08-18T00:10:16.928Z,20.79
2018-08-18T00:11:16.986Z,20.73
2018-08-18T00:12:16.276Z,20.73
2018-08-18T00:13:16.541Z,20.66
2018-08-18T00:14:16.805Z,20.65
2018-08-18T00:15:17.088Z,20.63
2018-08-18T00:16:16.363Z,20.62
2018-08-18T00:17:17.027Z,20.59
2018-08-18T00:18:16.299Z,20.59
2018-08-18T00:19:16.569Z,20.58
2018-08-18T00:20:16.849Z,20.54
2018-08-18T00:21:16.882Z,20.54
2018-08-18T00:22:17.908Z,20.54
2018-08-18T00:23:17.169Z,20.49
2018-08-18T00:24:16.438Z,20.55
2018-08-18T00:25:16.698Z,20.51
2018-08-18T00:26:16.967Z,20.51
2018-08-18T00:27:16.236Z,20.48
2018-08-18T00:28:16.549Z,20.44
2018-08-18T00:29:16.821Z,20.41
2018-08-18T00:30:17.102Z,20.45
2018-08-18T00:31:17.131Z,20.45
2018-08-18T00:32:16.397Z,20.46
2018-08-18T00:33:16.662Z,20.45
2018-08-18T00:34:16.961Z,20.41
2018-08-18T00:35:16.363Z,20.41
2018-08-18T00:36:16.635Z,20.42
2018-08-18T00:37:16.910Z,20.37
2018-08-18T00:38:17.187Z,20.35
2018-08-18T00:39:16.458Z,20.28
2018-08-18T00:40:16.724Z,20.29
2018-08-18T00:41:16.778Z,20.34
2018-08-18T00:42:17.039Z,20.29
2018-08-18T00:43:16.303Z,20.28
2018-08-18T00:44:16.569Z,20.25
2018-08-18T00:45:16.845Z,20.29
2018-08-18T00:46:17.116Z,20.27
2018-08-18T00:47:16.390Z,20.25
2018-08-18T00:48:16.657Z,20.27
2018-08-18T00:49:16.933Z,20.28
2018-08-18T00:50:17.213Z,20.29
2018-08-18T00:51:16.237Z,20.23
2018-08-18T00:52:16.501Z,20.23
2018-08-18T00:53:16.771Z,20.14
2018-08-18T00:54:16.452Z,20.10
2018-08-18T00:55:16.727Z,20.20
2018-08-18T00:56:16.997Z,20.11
2018-08-18T00:57:16.268Z,20.11
2018-08-18T00:58:16.529Z,20.11
2018-08-18T00:59:16.786Z,20.16
2018-08-18T01:00:17.064Z,20.13
2018-08-18T01:01:17.109Z,20.13
2018-08-18T01:02:16.378Z,20.14
2018-08-18T01:03:16.658Z,20.17
2018-08-18T01:04:16.933Z,20.16
2018-08-18T01:05:17.201Z,20.11
2018-08-18T01:06:16.465Z,20.13
2018-08-18T01:07:16.731Z,20.08
2018-08-18T01:08:17.000Z,20.07
2018-08-18T01:09:16.274Z,20.08
2018-08-18T01:10:16.566Z,20.11
2018-08-18T01:11:16.705Z,20.06
2018-08-18T01:12:16.322Z,20.14
2018-08-18T01:13:16.906Z,20.10
2018-08-18T01:14:16.608Z,20.10
2018-08-18T01:15:17.170Z,20.06
2018-08-18T01:16:16.445Z,20.07
2018-08-18T01:17:16.716Z,20.04
2018-08-18T01:18:16.987Z,20.04
2018-08-18T01:19:16.255Z,20.06
2018-08-18T01:20:16.532Z,20.03
2018-08-18T01:21:16.648Z,20.01
2018-08-18T01:22:16.966Z,20.03
2018-08-18T01:23:16.241Z,20.06
2018-08-18T01:24:16.510Z,20.01
2018-08-18T01:25:16.787Z,20.04
2018-08-18T01:26:17.060Z,20.06
2018-08-18T01:27:16.331Z,20.08
2018-08-18T01:28:16.598Z,20.06
2018-08-18T01:29:16.864Z,20.01
2018-08-18T01:30:17.256Z,19.97
2018-08-18T01:31:16.202Z,19.97
2018-08-18T01:32:16.477Z,19.97
2018-08-18T01:33:16.751Z,19.90
2018-08-18T01:34:17.015Z,19.93
2018-08-18T01:35:16.284Z,19.90
2018-08-18T01:36:16.567Z,19.87
2018-08-18T01:37:16.831Z,19.89
2018-08-18T01:38:17.097Z,19.84
2018-08-18T01:39:16.369Z,19.79
2018-08-18T01:40:16.645Z,19.83
2018-08-18T01:41:16.677Z,19.81
2018-08-18T01:42:16.940Z,19.79
2018-08-18T01:43:16.207Z,19.77
2018-08-18T01:44:16.451Z,19.74
2018-08-18T01:45:16.721Z,19.74
2018-08-18T01:46:16.997Z,19.76
2018-08-18T01:47:16.268Z,19.72
2018-08-18T01:48:16.533Z,19.72
2018-08-18T01:49:16.804Z,19.72
2018-08-18T01:50:17.085Z,19.73
2018-08-18T01:51:17.121Z,19.72
2018-08-18T01:52:16.401Z,19.69
2018-08-18T01:53:16.669Z,19.66
2018-08-18T01:54:16.936Z,19.58
2018-08-18T01:55:17.211Z,19.58
2018-08-18T01:56:16.478Z,19.59
2018-08-18T01:57:16.749Z,19.70
2018-08-18T01:58:17.028Z,19.66
2018-08-18T01:59:16.299Z,19.66
2018-08-18T02:00:16.600Z,19.65
2018-08-18T02:01:16.607Z,19.56
2018-08-18T02:02:16.880Z,19.49
2018-08-18T02:03:17.153Z,19.49
2018-08-18T02:04:16.415Z,19.51
2018-08-18T02:05:16.678Z,19.51
2018-08-18T02:06:16.942Z,19.52
2018-08-18T02:07:16.224Z,19.52
2018-08-18T02:08:16.489Z,19.52
2018-08-18T02:09:16.765Z,19.53
2018-08-18T02:10:17.047Z,19.42
2018-08-18T02:11:17.090Z,19.39
2018-08-18T02:12:16.366Z,19.30
2018-08-18T02:13:16.638Z,19.27
2018-08-18T02:14:16.907Z,19.21
2018-08-18T02:15:17.185Z,19.22
2018-08-18T02:16:16.457Z,19.18
2018-08-18T02:17:16.721Z,19.21
2018-08-18T02:18:16.985Z,19.17
2018-08-18T02:19:16.272Z,19.18
2018-08-18T02:20:16.577Z,19.22
2018-08-18T02:21:16.617Z,19.17
2018-08-18T02:22:16.893Z,19.10
2018-08-18T02:23:17.170Z,19.04
2018-08-18T02:24:16.439Z,19.00
2018-08-18T02:25:16.706Z,19.11
2018-08-18T02:26:17.118Z,19.17
2018-08-18T02:27:16.384Z,19.34
2018-08-18T02:28:16.651Z,19.38
2018-08-18T02:29:16.924Z,19.35
2018-08-18T02:30:17.225Z,19.34
2018-08-18T02:31:16.247Z,19.24
2018-08-18T02:32:16.514Z,19.37
2018-08-18T02:33:16.793Z,19.41
2018-08-18T02:34:17.057Z,19.34
2018-08-18T02:35:16.339Z,19.32
2018-08-18T02:36:16.627Z,19.28
2018-08-18T02:37:16.889Z,19.25
2018-08-18T02:38:17.164Z,19.10
2018-08-18T02:39:16.439Z,19.04
2018-08-18T02:40:16.730Z,19.03
2018-08-18T02:41:16.775Z,19.17
2018-08-18T02:42:17.037Z,19.31
2018-08-18T02:43:16.302Z,19.10
2018-08-18T02:44:16.579Z,19.11
2018-08-18T02:45:16.854Z,19.11
2018-08-18T02:46:17.145Z,19.10
2018-08-18T02:47:16.422Z,19.20
2018-08-18T02:48:16.685Z,19.25
2018-08-18T02:49:16.950Z,19.28
2018-08-18T02:50:16.223Z,19.27
2018-08-18T02:51:16.268Z,19.30
2018-08-18T02:52:16.530Z,19.32
2018-08-18T02:53:16.799Z,19.25
2018-08-18T02:54:17.074Z,19.28
2018-08-18T02:55:16.342Z,19.27
2018-08-18T02:56:16.646Z,19.30
2018-08-18T02:57:16.913Z,19.32
2018-08-18T02:58:17.185Z,19.34
2018-08-18T02:59:16.456Z,19.28
2018-08-18T03:00:16.753Z,19.30
2018-08-18T03:01:16.799Z,19.28
2018-08-18T03:02:17.075Z,19.31
2018-08-18T03:03:16.350Z,19.32
2018-08-18T03:04:16.613Z,19.27
2018-08-18T03:05:16.897Z,19.21
2018-08-18T03:06:17.174Z,19.18
2018-08-18T03:07:16.454Z,19.20
2018-08-18T03:08:16.730Z,19.22
2018-08-18T03:09:17.001Z,19.22
2018-08-18T03:10:16.305Z,19.22
2018-08-18T03:11:16.346Z,19.25
2018-08-18T03:12:16.625Z,19.27
2018-08-18T03:13:16.898Z,19.25
2018-08-18T03:14:17.160Z,19.27
2018-08-18T03:15:16.421Z,19.24
2018-08-18T03:16:16.692Z,19.14
2018-08-18T03:17:16.968Z,19.24
2018-08-18T03:18:16.249Z,19.24
2018-08-18T03:19:16.512Z,19.22
2018-08-18T03:20:16.798Z,19.25
2018-08-18T03:21:16.829Z,19.27
2018-08-18T03:22:17.097Z,19.25
2018-08-18T03:23:16.365Z,19.24
2018-08-18T03:24:16.637Z,19.27
2018-08-18T03:25:16.920Z,19.20
2018-08-18T03:26:17.181Z,19.18
2018-08-18T03:27:16.455Z,19.14
2018-08-18T03:28:16.717Z,19.13
2018-08-18T03:29:16.989Z,19.08
2018-08-18T03:30:16.269Z,19.13
2018-08-18T03:31:16.309Z,19.14
2018-08-18T03:32:16.578Z,19.11
2018-08-18T03:33:16.874Z,19.13
2018-08-18T03:34:17.137Z,19.13
2018-08-18T03:35:16.439Z,19.07
2018-08-18T03:36:16.710Z,19.07
2018-08-18T03:37:16.973Z,19.07
2018-08-18T03:38:16.246Z,19.04
2018-08-18T03:39:16.522Z,19.04
2018-08-18T03:40:16.798Z,19.07
2018-08-18T03:41:16.853Z,19.07
2018-08-18T03:42:17.125Z,19.04
2018-08-18T03:43:16.408Z,19.01
2018-08-18T03:44:16.685Z,19.03
2018-08-18T03:45:16.956Z,19.03
2018-08-18T03:46:16.218Z,19.03
2018-08-18T03:47:16.499Z,18.98
2018-08-18T03:48:16.764Z,19.00
2018-08-18T03:49:17.045Z,18.98
2018-08-18T03:50:16.323Z,19.00
2018-08-18T03:51:16.366Z,19.01
2018-08-18T03:52:16.687Z,19.00
2018-08-18T03:53:17.020Z,19.00
2018-08-18T03:54:16.306Z,19.00
2018-08-18T03:55:16.615Z,19.04
2018-08-18T03:56:16.902Z,19.05
2018-08-18T03:57:17.167Z,19.05
2018-08-18T03:58:16.441Z,19.08
2018-08-18T03:59:16.738Z,19.05
2018-08-18T04:00:17.021Z,19.04
2018-08-18T04:01:17.081Z,19.05
2018-08-18T04:02:16.382Z,19.07
2018-08-18T04:03:16.654Z,19.01
2018-08-18T04:04:16.935Z,18.98
2018-08-18T04:05:17.215Z,18.94
2018-08-18T04:06:16.495Z,18.97
2018-08-18T04:07:16.942Z,18.94
2018-08-18T04:08:16.218Z,19.00
2018-08-18T04:09:16.567Z,18.95
2018-08-18T04:10:16.917Z,18.98
2018-08-18T04:11:16.969Z,18.97
2018-08-18T04:12:16.240Z,19.00
2018-08-18T04:13:16.517Z,19.01
2018-08-18T04:14:16.796Z,18.94
2018-08-18T04:15:17.083Z,18.95
2018-08-18T04:16:16.358Z,18.97
2018-08-18T04:17:16.634Z,18.97
2018-08-18T04:18:16.901Z,18.91
2018-08-18T04:19:17.165Z,18.90
2018-08-18T04:20:16.467Z,18.91
2018-08-18T04:21:16.469Z,18.90
2018-08-18T04:22:16.749Z,18.88
2018-08-18T04:23:17.039Z,18.90
2018-08-18T04:24:16.311Z,18.88
2018-08-18T04:25:16.602Z,18.87
2018-08-18T04:26:17.079Z,18.84
2018-08-18T04:27:16.354Z,18.83
2018-08-18T04:28:16.635Z,18.82
2018-08-18T04:29:16.902Z,18.80
2018-08-18T04:30:17.181Z,18.83
2018-08-18T04:31:16.235Z,18.83
2018-08-18T04:32:16.510Z,18.79
2018-08-18T04:33:16.783Z,18.79
2018-08-18T04:34:17.049Z,18.80
2018-08-18T04:35:16.357Z,18.79
2018-08-18T04:36:16.815Z,18.77
2018-08-18T04:37:17.082Z,18.77
2018-08-18T04:38:16.351Z,18.76
2018-08-18T04:39:16.624Z,18.77
2018-08-18T04:40:16.899Z,18.73
2018-08-18T04:41:16.937Z,18.76
2018-08-18T04:42:17.210Z,18.75
2018-08-18T04:43:16.486Z,18.76
2018-08-18T04:44:16.764Z,18.75
2018-08-18T04:45:17.033Z,18.73
2018-08-18T04:46:16.317Z,18.73
2018-08-18T04:47:16.602Z,18.77
2018-08-18T04:48:16.875Z,18.75
2018-08-18T04:49:17.148Z,18.75
2018-08-18T04:50:16.459Z,18.73
2018-08-18T04:51:16.463Z,18.73
2018-08-18T04:52:16.721Z,18.72
2018-08-18T04:53:17.255Z,18.73
2018-08-18T04:54:16.527Z,18.72
2018-08-18T04:55:16.797Z,18.75
2018-08-18T04:56:17.072Z,18.76
2018-08-18T04:57:16.341Z,18.75
2018-08-18T04:58:16.615Z,18.73
2018-08-18T04:59:16.910Z,18.76
2018-08-18T05:00:17.185Z,18.75
2018-08-18T05:01:16.267Z,18.75
2018-08-18T05:02:16.544Z,18.73
2018-08-18T05:03:16.842Z,18.73
2018-08-18T05:04:17.142Z,18.76
2018-08-18T05:05:16.527Z,18.76
2018-08-18T05:06:17.052Z,18.80
2018-08-18T05:07:16.316Z,18.73
2018-08-18T05:08:16.587Z,18.76
2018-08-18T05:09:16.859Z,18.80
2018-08-18T05:10:17.143Z,18.76
2018-08-18T05:11:17.187Z,18.77
2018-08-18T05:12:16.457Z,18.83
2018-08-18T05:13:16.729Z,18.83
2018-08-18T05:14:17.002Z,18.83
2018-08-18T05:15:16.268Z,18.80
2018-08-18T05:16:16.540Z,18.82
2018-08-18T05:17:16.812Z,18.79
2018-08-18T05:18:17.085Z,18.82
2018-08-18T05:19:16.417Z,18.79
2018-08-18T05:20:16.896Z,18.79
2018-08-18T05:21:16.954Z,18.79
2018-08-18T05:22:16.226Z,18.82
2018-08-18T05:23:16.502Z,18.82
2018-08-18T05:24:16.768Z,18.79
2018-08-18T05:25:17.052Z,18.80
2018-08-18T05:26:16.325Z,18.75
2018-08-18T05:27:16.597Z,18.75
2018-08-18T05:28:16.865Z,18.76
2018-08-18T05:29:17.141Z,18.76
2018-08-18T05:30:16.439Z,18.75
2018-08-18T05:31:16.471Z,18.79
2018-08-18T05:32:16.732Z,18.80
2018-08-18T05:33:16.997Z,18.79
2018-08-18T05:34:16.272Z,18.80
2018-08-18T05:35:16.562Z,18.79
2018-08-18T05:36:16.865Z,18.80
2018-08-18T05:37:17.140Z,18.80
2018-08-18T05:38:16.413Z,18.88
2018-08-18T05:39:16.692Z,18.84
2018-08-18T05:40:16.986Z,18.82
2018-08-18T05:41:17.024Z,18.90
2018-08-18T05:42:16.290Z,18.91
2018-08-18T05:43:16.549Z,18.93
2018-08-18T05:44:16.820Z,19.00
2018-08-18T05:45:17.125Z,18.98
2018-08-18T05:46:16.398Z,18.90
2018-08-18T05:47:16.674Z,19.04
2018-08-18T05:48:16.938Z,19.15
2018-08-18T05:49:16.211Z,19.17
2018-08-18T05:50:16.491Z,19.24
2018-08-18T05:51:16.538Z,19.22
2018-08-18T05:52:16.793Z,19.24
2018-08-18T05:53:17.057Z,19.28
2018-08-18T05:54:16.336Z,19.27
2018-08-18T05:55:16.603Z,19.30
2018-08-18T05:56:16.873Z,19.41
2018-08-18T05:57:17.139Z,19.42
2018-08-18T05:58:16.405Z,19.56
2018-08-18T05:59:16.679Z,19.53
2018-08-18T06:00:16.969Z,19.58
2018-08-18T06:01:17.010Z,19.58
2018-08-18T06:02:16.287Z,19.45
2018-08-18T06:03:16.557Z,19.44
2018-08-18T06:04:16.823Z,19.53
2018-08-18T06:05:17.107Z,19.53
2018-08-18T06:06:16.378Z,19.46
2018-08-18T06:07:16.649Z,19.52
2018-08-18T06:08:16.921Z,19.58
2018-08-18T06:09:17.191Z,19.44
2018-08-18T06:10:16.471Z,19.51
2018-08-18T06:11:16.635Z,19.66
2018-08-18T06:12:16.902Z,19.63
2018-08-18T06:13:17.167Z,19.53
2018-08-18T06:14:16.441Z,19.56
2018-08-18T06:15:16.705Z,19.66
2018-08-18T06:16:16.975Z,19.63
2018-08-18T06:17:16.242Z,19.65
2018-08-18T06:18:16.522Z,19.77
2018-08-18T06:19:16.803Z,19.77
2018-08-18T06:20:17.077Z,19.73
2018-08-18T06:21:17.123Z,19.73
2018-08-18T06:22:16.392Z,19.74
2018-08-18T06:23:16.668Z,19.59
2018-08-18T06:24:16.944Z,19.77
2018-08-18T06:25:16.214Z,19.91
2018-08-18T06:26:16.486Z,19.86
2018-08-18T06:27:17.010Z,19.93
2018-08-18T06:28:16.285Z,19.87
2018-08-18T06:29:16.549Z,19.73
2018-08-18T06:30:16.824Z,19.69
2018-08-18T06:31:16.865Z,19.60
2018-08-18T06:32:17.137Z,19.65
2018-08-18T06:33:16.403Z,19.63
2018-08-18T06:34:16.669Z,19.62
2018-08-18T06:35:16.943Z,19.70
2018-08-18T06:36:16.206Z,19.86
2018-08-18T06:37:16.498Z,19.81
2018-08-18T06:38:16.770Z,19.56
2018-08-18T06:39:17.041Z,19.39
2018-08-18T06:40:16.328Z,19.46
2018-08-18T06:41:16.522Z,19.44
2018-08-18T06:42:17.196Z,19.46
2018-08-18T06:43:16.472Z,19.53
2018-08-18T06:44:16.732Z,19.60
2018-08-18T06:45:17.000Z,19.59
2018-08-18T06:46:16.284Z,19.65
2018-08-18T06:47:16.571Z,19.65
2018-08-18T06:48:16.841Z,19.41
2018-08-18T06:49:17.106Z,19.53
2018-08-18T06:50:16.407Z,19.63
2018-08-18T06:51:16.446Z,19.66
2018-08-18T06:52:16.712Z,19.53
2018-08-18T06:53:16.977Z,19.51
2018-08-18T06:54:16.269Z,19.53
2018-08-18T06:55:16.755Z,19.62
2018-08-18T06:56:16.603Z,19.53
2018-08-18T06:57:16.883Z,19.58
2018-08-18T06:58:17.146Z,19.66
2018-08-18T06:59:16.420Z,19.59
2018-08-18T07:00:16.718Z,19.70
2018-08-18T07:01:16.748Z,19.77
2018-08-18T07:02:17.016Z,19.86
2018-08-18T07:03:16.282Z,19.97
2018-08-18T07:04:16.556Z,19.94
2018-08-18T07:05:16.827Z,20.04
2018-08-18T07:06:17.092Z,20.04
2018-08-18T07:07:16.360Z,20.11
2018-08-18T07:08:16.620Z,19.84
2018-08-18T07:09:16.885Z,19.93
2018-08-18T07:10:17.158Z,20.07
2018-08-18T07:11:17.240Z,20.04
2018-08-18T07:12:16.535Z,19.94
2018-08-18T07:13:16.810Z,19.91
2018-08-18T07:14:17.074Z,20.08
2018-08-18T07:15:16.364Z,20.11
2018-08-18T07:16:16.619Z,20.35
2018-08-18T07:17:16.882Z,20.42
2018-08-18T07:18:17.161Z,20.41
2018-08-18T07:19:16.447Z,20.46
2018-08-18T07:20:16.769Z,20.27
2018-08-18T07:21:16.801Z,20.35
2018-08-18T07:22:17.362Z,20.55
2018-08-18T07:23:16.629Z,20.58
2018-08-18T07:24:16.906Z,20.16
2018-08-18T07:25:17.184Z,20.16
2018-08-18T07:26:16.467Z,20.29
2018-08-18T07:27:16.737Z,20.56
2018-08-18T07:28:17.095Z,20.65
2018-08-18T07:29:16.637Z,21.00
2018-08-18T07:30:16.974Z,21.15
2018-08-18T07:31:16.969Z,21.33
2018-08-18T07:32:16.366Z,21.21
2018-08-18T07:33:16.637Z,20.97
2018-08-18T07:34:16.905Z,20.75
2018-08-18T07:35:17.184Z,20.78
2018-08-18T07:36:16.454Z,20.90
2018-08-18T07:37:16.851Z,21.07
2018-08-18T07:38:16.425Z,21.14
2018-08-18T07:39:16.701Z,21.17
2018-08-18T07:40:16.994Z,20.68
2018-08-18T07:41:17.014Z,20.56
2018-08-18T07:42:16.288Z,20.63
2018-08-18T07:43:16.561Z,20.59
2018-08-18T07:44:16.833Z,20.71
2018-08-18T07:45:17.109Z,21.13
2018-08-18T07:46:16.424Z,20.87
2018-08-18T07:47:16.771Z,20.86
2018-08-18T07:48:17.055Z,20.97
2018-08-18T07:49:16.347Z,20.97
2018-08-18T07:50:16.655Z,20.89
2018-08-18T07:51:16.702Z,20.59
2018-08-18T07:52:16.967Z,20.69
2018-08-18T07:53:16.355Z,20.87
2018-08-18T07:54:16.965Z,21.03
2018-08-18T07:55:16.536Z,21.20
2018-08-18T07:56:16.806Z,21.27
2018-08-18T07:57:17.086Z,21.37
2018-08-18T07:58:16.367Z,21.52
2018-08-18T07:59:16.656Z,21.48
2018-08-18T08:00:16.934Z,21.41
2018-08-18T08:01:16.963Z,21.58
2018-08-18T08:02:16.245Z,21.47
2018-08-18T08:03:16.513Z,21.54
2018-08-18T08:04:16.779Z,21.48
2018-08-18T08:05:17.052Z,21.36
2018-08-18T08:06:16.333Z,21.52
2018-08-18T08:07:16.608Z,21.44
2018-08-18T08:08:16.882Z,21.44
2018-08-18T08:09:17.154Z,21.30
2018-08-18T08:10:16.444Z,21.49
2018-08-18T08:11:16.494Z,21.41
2018-08-18T08:12:16.755Z,21.14
2018-08-18T08:13:17.025Z,21.24
2018-08-18T08:14:16.289Z,21.49
2018-08-18T08:15:16.565Z,21.51
2018-08-18T08:16:16.836Z,21.54
2018-08-18T08:17:17.121Z,21.62
2018-08-18T08:18:16.454Z,21.72
2018-08-18T08:19:16.986Z,21.69
2018-08-18T08:20:16.264Z,21.83
2018-08-18T08:21:16.324Z,21.85
2018-08-18T08:22:16.585Z,21.93
2018-08-18T08:23:16.857Z,21.91
2018-08-18T08:24:17.128Z,21.82
2018-08-18T08:25:16.393Z,21.85
2018-08-18T08:26:16.660Z,21.80
2018-08-18T08:27:16.933Z,21.78
2018-08-18T08:28:17.197Z,21.76
2018-08-18T08:29:16.491Z,21.89
2018-08-18T08:30:16.767Z,22.21
2018-08-18T08:31:16.857Z,22.06
2018-08-18T08:32:17.129Z,22.03
2018-08-18T08:33:16.393Z,22.24
2018-08-18T08:34:16.656Z,22.35
2018-08-18T08:35:16.929Z,22.38
2018-08-18T08:36:17.201Z,22.30
2018-08-18T08:37:16.486Z,22.33
2018-08-18T08:38:16.749Z,22.55
2018-08-18T08:39:17.014Z,22.76
2018-08-18T08:40:16.291Z,22.47
2018-08-18T08:41:16.326Z,22.70
2018-08-18T08:42:16.614Z,22.78
2018-08-18T08:43:16.934Z,22.83
2018-08-18T08:44:16.389Z,22.74
2018-08-18T08:45:16.669Z,22.79
2018-08-18T08:46:16.932Z,22.83
2018-08-18T08:47:17.212Z,22.62
2018-08-18T08:48:16.489Z,22.60
2018-08-18T08:49:16.754Z,22.57
2018-08-18T08:50:17.029Z,22.71
2018-08-18T08:51:17.056Z,22.82
2018-08-18T08:52:16.324Z,22.72
2018-08-18T08:53:16.865Z,22.68
2018-08-18T08:54:17.140Z,22.71
2018-08-18T08:55:16.417Z,22.74
2018-08-18T08:56:16.686Z,22.57
2018-08-18T08:57:16.957Z,22.74
2018-08-18T08:58:16.227Z,22.96
2018-08-18T08:59:16.491Z,22.95
2018-08-18T09:00:16.792Z,23.09
2018-08-18T09:01:16.854Z,23.10
2018-08-18T09:02:17.121Z,23.30
2018-08-18T09:03:16.388Z,23.47
2018-08-18T09:04:16.941Z,23.39
2018-08-18T09:05:16.218Z,23.54
2018-08-18T09:06:16.777Z,23.61
2018-08-18T09:07:17.052Z,23.37
2018-08-18T09:08:16.324Z,23.23
2018-08-18T09:09:16.592Z,23.26
2018-08-18T09:10:16.933Z,23.16
2018-08-18T09:11:16.908Z,23.05
2018-08-18T09:12:17.191Z,23.13
2018-08-18T09:13:16.480Z,23.05
2018-08-18T09:14:16.744Z,23.20
2018-08-18T09:15:17.022Z,23.48
2018-08-18T09:16:16.799Z,23.67
2018-08-18T09:17:17.065Z,23.77
2018-08-18T09:18:16.333Z,24.06
2018-08-18T09:19:16.609Z,24.08
2018-08-18T09:20:16.895Z,23.78
2018-08-18T09:21:16.936Z,24.04
2018-08-18T09:22:17.205Z,24.16
2018-08-18T09:23:16.475Z,24.16
2018-08-18T09:24:16.752Z,24.01
2018-08-18T09:25:17.016Z,24.15
2018-08-18T09:26:16.379Z,24.24
2018-08-18T09:27:16.714Z,23.92
2018-08-18T09:28:16.981Z,23.95
2018-08-18T09:29:16.254Z,24.13
2018-08-18T09:30:16.530Z,24.29
2018-08-18T09:31:16.571Z,24.12
2018-08-18T09:32:16.837Z,24.22
2018-08-18T09:33:17.115Z,24.44
2018-08-18T09:34:16.385Z,24.57
2018-08-18T09:35:16.646Z,24.57
2018-08-18T09:36:16.967Z,24.46
2018-08-18T09:37:16.317Z,24.15
2018-08-18T09:38:16.589Z,24.32
2018-08-18T09:39:16.862Z,24.49
2018-08-18T09:40:17.138Z,24.60
2018-08-18T09:41:17.179Z,24.61
2018-08-18T09:42:16.457Z,24.59
2018-08-18T09:43:16.732Z,24.64
2018-08-18T09:44:17.002Z,24.59
2018-08-18T09:45:16.311Z,24.53
2018-08-18T09:46:16.707Z,24.29
2018-08-18T09:47:17.082Z,24.29
2018-08-18T09:48:16.354Z,24.42
2018-08-18T09:49:16.624Z,24.30
2018-08-18T09:50:16.904Z,24.40
2018-08-18T09:51:16.953Z,24.54
2018-08-18T09:52:16.223Z,24.59
2018-08-18T09:53:16.500Z,24.27
2018-08-18T09:54:16.768Z,24.33
2018-08-18T09:55:17.034Z,24.30
2018-08-18T09:56:16.306Z,24.35
2018-08-18T09:57:16.587Z,24.42
2018-08-18T09:58:16.858Z,24.42
2018-08-18T09:59:17.180Z,24.72
2018-08-18T10:00:16.742Z,24.84
2018-08-18T10:01:16.782Z,24.88
2018-08-18T10:02:17.050Z,24.95
2018-08-18T10:03:16.328Z,25.08
2018-08-18T10:04:16.603Z,25.11
2018-08-18T10:05:16.872Z,25.30
2018-08-18T10:06:17.190Z,25.11
2018-08-18T10:07:16.510Z,24.74
2018-08-18T10:08:16.771Z,24.82
2018-08-18T10:09:17.043Z,24.75
2018-08-18T10:10:16.318Z,24.95
2018-08-18T10:11:16.366Z,25.01
2018-08-18T10:12:16.627Z,25.01
2018-08-18T10:13:16.902Z,24.75
2018-08-18T10:14:17.185Z,24.63
2018-08-18T10:15:16.474Z,24.75
2018-08-18T10:16:16.800Z,24.95
2018-08-18T10:17:17.071Z,25.14
2018-08-18T10:18:16.339Z,25.32
2018-08-18T10:19:16.618Z,25.40
2018-08-18T10:20:16.884Z,25.23
2018-08-18T10:21:16.927Z,25.05
2018-08-18T10:22:16.201Z,25.11
2018-08-18T10:23:16.473Z,25.04
2018-08-18T10:24:16.740Z,25.19
2018-08-18T10:25:17.025Z,25.39
2018-08-18T10:26:16.289Z,25.53
2018-08-18T10:27:16.619Z,25.67
2018-08-18T10:28:16.929Z,25.19
2018-08-18T10:29:17.202Z,25.07
2018-08-18T10:30:16.480Z,24.95
2018-08-18T10:31:16.549Z,25.07
2018-08-18T10:32:16.812Z,25.08
2018-08-18T10:33:17.162Z,25.18
2018-08-18T10:34:16.583Z,25.36
2018-08-18T10:35:16.861Z,25.42
2018-08-18T10:36:17.121Z,25.47
2018-08-18T10:37:16.392Z,25.80
2018-08-18T10:38:16.660Z,25.90
2018-08-18T10:39:16.931Z,25.97
2018-08-18T10:40:17.219Z,26.00
2018-08-18T10:41:16.250Z,26.15
2018-08-18T10:42:16.523Z,26.42
2018-08-18T10:43:16.797Z,26.22
2018-08-18T10:44:17.080Z,25.81
2018-08-18T10:45:16.355Z,25.79
2018-08-18T10:46:16.628Z,25.97
2018-08-18T10:47:16.890Z,26.17
2018-08-18T10:48:17.171Z,26.01
2018-08-18T10:49:16.441Z,25.81
2018-08-18T10:50:16.725Z,25.84
2018-08-18T10:51:16.770Z,25.95
2018-08-18T10:52:17.044Z,26.08
2018-08-18T10:53:16.319Z,26.25
2018-08-18T10:54:16.588Z,26.42
2018-08-18T10:55:16.916Z,26.34
2018-08-18T10:56:17.490Z,25.62
2018-08-18T10:57:16.768Z,25.70
2018-08-18T10:58:17.054Z,26.02
2018-08-18T10:59:16.320Z,26.12
2018-08-18T11:00:16.609Z,26.43
2018-08-18T11:01:16.643Z,26.62
2018-08-18T11:02:16.918Z,26.15
2018-08-18T11:03:17.192Z,26.29
2018-08-18T11:04:16.454Z,26.46
2018-08-18T11:05:16.723Z,26.69
2018-08-18T11:06:16.989Z,26.82
2018-08-18T11:07:16.274Z,26.36
2018-08-18T11:08:16.546Z,26.28
2018-08-18T11:09:16.819Z,26.42
2018-08-18T11:10:17.091Z,26.45
2018-08-18T11:11:17.164Z,26.43
2018-08-18T11:12:16.436Z,26.45
2018-08-18T11:13:16.704Z,26.62
2018-08-18T11:14:16.982Z,26.34
2018-08-18T11:15:16.261Z,26.48
2018-08-18T11:16:16.534Z,26.71
2018-08-18T11:17:16.797Z,26.98
2018-08-18T11:18:17.063Z,26.98
2018-08-18T11:19:16.335Z,26.87
2018-08-18T11:20:16.620Z,26.58
2018-08-18T11:21:16.658Z,26.87
2018-08-18T11:22:16.929Z,26.93
2018-08-18T11:23:17.205Z,27.00
2018-08-18T11:24:16.494Z,26.73
2018-08-18T11:25:16.758Z,26.62
2018-08-18T11:26:17.042Z,26.87
2018-08-18T11:27:16.506Z,26.86
2018-08-18T11:28:16.819Z,26.87
2018-08-18T11:29:17.150Z,27.04
2018-08-18T11:30:16.443Z,27.00
2018-08-18T11:31:16.479Z,27.11
2018-08-18T11:32:16.755Z,27.04
2018-08-18T11:33:17.034Z,27.03
2018-08-18T11:34:16.300Z,27.01
2018-08-18T11:35:16.669Z,27.00
2018-08-18T11:36:17.169Z,26.69
2018-08-18T11:37:16.442Z,26.91
2018-08-18T11:38:16.725Z,27.08
2018-08-18T11:39:16.992Z,27.24
2018-08-18T11:40:16.282Z,27.25
2018-08-18T11:41:16.337Z,27.17
2018-08-18T11:42:16.629Z,26.93
2018-08-18T11:43:16.899Z,26.77
2018-08-18T11:44:17.176Z,27.03
2018-08-18T11:45:16.453Z,27.11
2018-08-18T11:46:16.721Z,27.07
2018-08-18T11:47:16.993Z,26.76
2018-08-18T11:48:16.464Z,27.03
2018-08-18T11:49:16.729Z,26.94
2018-08-18T11:50:17.001Z,27.24
2018-08-18T11:51:17.050Z,27.28
2018-08-18T11:52:16.329Z,27.28
2018-08-18T11:53:16.597Z,27.17
2018-08-18T11:54:16.866Z,27.26
2018-08-18T11:55:17.137Z,27.22
2018-08-18T11:56:16.405Z,27.11
2018-08-18T11:57:16.674Z,26.89
2018-08-18T11:58:16.941Z,26.90
2018-08-18T11:59:16.233Z,26.94
2018-08-18T12:00:16.522Z,26.90
2018-08-18T12:01:16.562Z,27.15
2018-08-18T12:02:16.832Z,26.98
2018-08-18T12:03:17.099Z,27.28
2018-08-18T12:04:16.441Z,27.31
2018-08-18T12:05:16.712Z,27.56
2018-08-18T12:06:16.991Z,27.24
2018-08-18T12:07:16.255Z,26.91
2018-08-18T12:08:16.522Z,27.11
2018-08-18T12:09:16.787Z,27.38
2018-08-18T12:10:17.056Z,27.51
2018-08-18T12:11:17.139Z,27.48
2018-08-18T12:12:16.416Z,27.37
2018-08-18T12:13:16.675Z,27.41
2018-08-18T12:14:16.944Z,27.38
2018-08-18T12:15:16.219Z,27.46
2018-08-18T12:16:16.497Z,27.18
2018-08-18T12:17:16.765Z,27.13
2018-08-18T12:18:17.044Z,27.26
2018-08-18T12:19:16.317Z,27.31
2018-08-18T12:20:16.602Z,27.35
2018-08-18T12:21:16.644Z,27.48
2018-08-18T12:22:16.911Z,27.66
2018-08-18T12:23:17.180Z,27.59
2018-08-18T12:24:16.455Z,27.59
2018-08-18T12:25:16.720Z,27.75
2018-08-18T12:26:16.991Z,27.86
2018-08-18T12:27:16.260Z,27.93
2018-08-18T12:28:16.760Z,28.07
2018-08-18T12:29:17.032Z,27.86
2018-08-18T12:30:16.315Z,27.87
2018-08-18T12:31:16.365Z,27.87
2018-08-18T12:32:16.641Z,27.79
2018-08-18T12:33:16.904Z,27.72
2018-08-18T12:34:17.172Z,28.39
2018-08-18T12:35:16.444Z,28.32
2018-08-18T12:36:16.783Z,27.55
2018-08-18T12:37:16.357Z,27.59
2018-08-18T12:38:16.866Z,27.90
2018-08-18T12:39:17.132Z,27.89
2018-08-18T12:40:16.415Z,27.99
2018-08-18T12:41:16.489Z,27.91
2018-08-18T12:42:16.763Z,27.72
2018-08-18T12:43:17.039Z,27.61
2018-08-18T12:44:16.310Z,27.75
2018-08-18T12:45:16.573Z,27.90
2018-08-18T12:46:16.849Z,28.11
2018-08-18T12:47:17.133Z,28.10
2018-08-18T12:48:16.405Z,28.47
2018-08-18T12:49:16.671Z,28.47
2018-08-18T12:50:16.951Z,28.01
2018-08-18T12:51:16.993Z,28.07
2018-08-18T12:52:16.263Z,27.76